sensor_id;sensor_type;location;lat;lon;timestamp;temperature;humidity
2763;DHT22;1389;51.490;7.338;2023-02-13T00:01:44;8.90;91.50
2763;DHT22;1389;51.490;7.338;2023-02-13T00:04:10;8.90;91.60
2763;DHT22;1389;51.490;7.338;2023-02-13T00:06:36;8.90;91.60
2763;DHT22;1389;51.490;7.338;2023-02-13T00:09:02;8.90;91.50
2763;DHT22;1389;51.490;7.338;2023-02-13T00:11:29;8.90;91.60
2763;DHT22;1389;51.490;7.338;2023-02-13T00:13:55;8.90;91.80
2763;DHT22;1389;51.490;7.338;2023-02-13T00:16:21;8.90;91.80
2763;DHT22;1389;51.490;7.338;2023-02-13T00:18:47;8.90;91.70
2763;DHT22;1389;51.490;7.338;2023-02-13T00:21:13;8.90;91.80
2763;DHT22;1389;51.490;7.338;2023-02-13T00:23:39;8.90;91.80
2763;DHT22;1389;51.490;7.338;2023-02-13T00:26:10;8.90;91.60
2763;DHT22;1389;51.490;7.338;2023-02-13T00:28:37;8.90;91.90
2763;DHT22;1389;51.490;7.338;2023-02-13T00:31:09;8.90;91.90
2763;DHT22;1389;51.490;7.338;2023-02-13T00:33:36;8.90;91.80
2763;DHT22;1389;51.490;7.338;2023-02-13T00:36:20;8.80;91.80
2763;DHT22;1389;51.490;7.338;2023-02-13T00:38:47;8.80;92.10
2763;DHT22;1389;51.490;7.338;2023-02-13T00:41:14;8.80;92.10
2763;DHT22;1389;51.490;7.338;2023-02-13T00:43:42;8.80;92.00
2763;DHT22;1389;51.490;7.338;2023-02-13T00:46:09;8.80;91.90
2763;DHT22;1389;51.490;7.338;2023-02-13T00:48:35;8.80;92.00
2763;DHT22;1389;51.490;7.338;2023-02-13T00:51:02;8.80;92.10
2763;DHT22;1389;51.490;7.338;2023-02-13T00:53:28;8.70;92.20
2763;DHT22;1389;51.490;7.338;2023-02-13T00:55:55;8.80;92.30
2763;DHT22;1389;51.490;7.338;2023-02-13T00:58:21;8.80;92.30
2763;DHT22;1389;51.490;7.338;2023-02-13T01:00:48;8.80;92.30
2763;DHT22;1389;51.490;7.338;2023-02-13T01:03:15;8.80;92.30
2763;DHT22;1389;51.490;7.338;2023-02-13T01:05:43;8.80;92.30
2763;DHT22;1389;51.490;7.338;2023-02-13T01:08:10;8.80;92.30
2763;DHT22;1389;51.490;7.338;2023-02-13T01:10:38;8.80;92.20
2763;DHT22;1389;51.490;7.338;2023-02-13T01:13:05;8.80;92.20
2763;DHT22;1389;51.490;7.338;2023-02-13T01:15:31;8.80;92.20
2763;DHT22;1389;51.490;7.338;2023-02-13T01:17:57;8.80;92.20
2763;DHT22;1389;51.490;7.338;2023-02-13T01:20:26;8.80;92.30
2763;DHT22;1389;51.490;7.338;2023-02-13T01:22:53;8.80;92.30
2763;DHT22;1389;51.490;7.338;2023-02-13T01:25:19;8.80;92.00
2763;DHT22;1389;51.490;7.338;2023-02-13T01:27:46;8.80;92.10
2763;DHT22;1389;51.490;7.338;2023-02-13T01:30:13;8.80;92.10
2763;DHT22;1389;51.490;7.338;2023-02-13T01:32:41;8.80;92.30
2763;DHT22;1389;51.490;7.338;2023-02-13T01:35:08;8.80;92.20
2763;DHT22;1389;51.490;7.338;2023-02-13T01:37:34;8.80;92.30
2763;DHT22;1389;51.490;7.338;2023-02-13T01:40:01;8.80;92.40
2763;DHT22;1389;51.490;7.338;2023-02-13T01:42:30;8.80;92.30
2763;DHT22;1389;51.490;7.338;2023-02-13T01:44:58;8.70;92.30
2763;DHT22;1389;51.490;7.338;2023-02-13T01:47:34;8.70;92.20
2763;DHT22;1389;51.490;7.338;2023-02-13T01:52:41;8.70;92.50
2763;DHT22;1389;51.490;7.338;2023-02-13T01:55:09;8.70;92.50
2763;DHT22;1389;51.490;7.338;2023-02-13T01:57:36;8.70;92.60
2763;DHT22;1389;51.490;7.338;2023-02-13T02:00:11;8.70;92.60
2763;DHT22;1389;51.490;7.338;2023-02-13T02:02:42;8.70;92.50
2763;DHT22;1389;51.490;7.338;2023-02-13T02:05:10;8.70;92.50
2763;DHT22;1389;51.490;7.338;2023-02-13T02:07:38;8.80;92.50
2763;DHT22;1389;51.490;7.338;2023-02-13T02:10:14;8.80;92.50
2763;DHT22;1389;51.490;7.338;2023-02-13T02:15:12;8.80;92.30
2763;DHT22;1389;51.490;7.338;2023-02-13T02:17:38;8.80;92.20
2763;DHT22;1389;51.490;7.338;2023-02-13T02:28:06;8.80;92.00
2763;DHT22;1389;51.490;7.338;2023-02-13T02:47:04;8.70;91.90
2763;DHT22;1389;51.490;7.338;2023-02-13T02:50:00;8.70;91.60
2763;DHT22;1389;51.490;7.338;2023-02-13T02:52:38;8.70;91.60
2763;DHT22;1389;51.490;7.338;2023-02-13T02:58:04;8.70;91.40
2763;DHT22;1389;51.490;7.338;2023-02-13T03:00:51;8.60;91.50
2763;DHT22;1389;51.490;7.338;2023-02-13T03:03:37;8.60;91.70
2763;DHT22;1389;51.490;7.338;2023-02-13T03:06:46;8.60;91.70
2763;DHT22;1389;51.490;7.338;2023-02-13T03:09:18;8.70;91.40
2763;DHT22;1389;51.490;7.338;2023-02-13T03:12:03;8.70;91.20
2763;DHT22;1389;51.490;7.338;2023-02-13T03:14:48;8.70;91.00
2763;DHT22;1389;51.490;7.338;2023-02-13T03:17:16;8.70;90.90
2763;DHT22;1389;51.490;7.338;2023-02-13T03:26:35;8.60;91.00
2763;DHT22;1389;51.490;7.338;2023-02-13T03:28:56;8.60;91.10
2763;DHT22;1389;51.490;7.338;2023-02-13T03:34:40;8.60;91.10
2763;DHT22;1389;51.490;7.338;2023-02-13T03:37:29;8.60;91.10
2763;DHT22;1389;51.490;7.338;2023-02-13T03:40:34;8.60;90.90
2763;DHT22;1389;51.490;7.338;2023-02-13T03:43:13;8.50;90.90
2763;DHT22;1389;51.490;7.338;2023-02-13T03:45:45;8.50;90.90
2763;DHT22;1389;51.490;7.338;2023-02-13T03:48:34;8.50;91.30
2763;DHT22;1389;51.490;7.338;2023-02-13T03:54:04;8.50;90.60
2763;DHT22;1389;51.490;7.338;2023-02-13T03:56:32;8.50;90.90
2763;DHT22;1389;51.490;7.338;2023-02-13T03:59:24;8.50;90.90
2763;DHT22;1389;51.490;7.338;2023-02-13T04:02:09;8.50;90.80
2763;DHT22;1389;51.490;7.338;2023-02-13T04:04:50;8.50;90.70
2763;DHT22;1389;51.490;7.338;2023-02-13T04:07:21;8.50;90.80
2763;DHT22;1389;51.490;7.338;2023-02-13T04:09:58;8.50;90.50
2763;DHT22;1389;51.490;7.338;2023-02-13T04:20:41;8.40;90.80
2763;DHT22;1389;51.490;7.338;2023-02-13T04:23:09;8.40;90.70
2763;DHT22;1389;51.490;7.338;2023-02-13T04:25:38;8.40;90.90
2763;DHT22;1389;51.490;7.338;2023-02-13T04:28:05;8.40;90.80
2763;DHT22;1389;51.490;7.338;2023-02-13T04:30:31;8.40;90.50
2763;DHT22;1389;51.490;7.338;2023-02-13T04:32:57;8.40;90.40
2763;DHT22;1389;51.490;7.338;2023-02-13T04:35:23;8.40;90.60
2763;DHT22;1389;51.490;7.338;2023-02-13T04:37:49;8.40;90.90
2763;DHT22;1389;51.490;7.338;2023-02-13T04:40:16;8.40;90.90
2763;DHT22;1389;51.490;7.338;2023-02-13T04:42:42;8.40;90.90
2763;DHT22;1389;51.490;7.338;2023-02-13T04:45:08;8.40;90.70
2763;DHT22;1389;51.490;7.338;2023-02-13T04:47:34;8.40;90.40
2763;DHT22;1389;51.490;7.338;2023-02-13T04:50:00;8.40;90.50
2763;DHT22;1389;51.490;7.338;2023-02-13T04:52:26;8.40;90.50
2763;DHT22;1389;51.490;7.338;2023-02-13T04:54:52;8.40;90.60
2763;DHT22;1389;51.490;7.338;2023-02-13T04:57:19;8.40;90.80
2763;DHT22;1389;51.490;7.338;2023-02-13T04:59:45;8.40;90.60
2763;DHT22;1389;51.490;7.338;2023-02-13T05:02:11;8.40;90.60
2763;DHT22;1389;51.490;7.338;2023-02-13T05:04:37;8.40;90.80
2763;DHT22;1389;51.490;7.338;2023-02-13T05:07:03;8.40;90.90
2763;DHT22;1389;51.490;7.338;2023-02-13T05:09:29;8.40;90.80
2763;DHT22;1389;51.490;7.338;2023-02-13T05:11:55;8.40;90.60
2763;DHT22;1389;51.490;7.338;2023-02-13T05:14:21;8.40;90.50
2763;DHT22;1389;51.490;7.338;2023-02-13T05:16:48;8.40;90.60
2763;DHT22;1389;51.490;7.338;2023-02-13T05:19:15;8.40;90.80
2763;DHT22;1389;51.490;7.338;2023-02-13T05:21:41;8.40;90.70
2763;DHT22;1389;51.490;7.338;2023-02-13T05:24:26;8.40;90.90
2763;DHT22;1389;51.490;7.338;2023-02-13T05:26:52;8.40;90.80
2763;DHT22;1389;51.490;7.338;2023-02-13T05:29:18;8.40;90.90
2763;DHT22;1389;51.490;7.338;2023-02-13T05:31:45;8.40;91.00
2763;DHT22;1389;51.490;7.338;2023-02-13T05:34:11;8.40;90.70
2763;DHT22;1389;51.490;7.338;2023-02-13T05:36:37;8.40;90.30
2763;DHT22;1389;51.490;7.338;2023-02-13T05:39:05;8.40;90.50
2763;DHT22;1389;51.490;7.338;2023-02-13T05:41:31;8.30;90.50
2763;DHT22;1389;51.490;7.338;2023-02-13T05:43:57;8.30;90.90
2763;DHT22;1389;51.490;7.338;2023-02-13T05:46:24;8.30;91.10
2763;DHT22;1389;51.490;7.338;2023-02-13T05:48:50;8.30;91.00
2763;DHT22;1389;51.490;7.338;2023-02-13T05:51:20;8.40;91.20
2763;DHT22;1389;51.490;7.338;2023-02-13T05:53:46;8.40;91.10
2763;DHT22;1389;51.490;7.338;2023-02-13T05:56:12;8.50;90.60
2763;DHT22;1389;51.490;7.338;2023-02-13T05:58:39;8.40;90.30
2763;DHT22;1389;51.490;7.338;2023-02-13T06:01:05;8.30;90.70
2763;DHT22;1389;51.490;7.338;2023-02-13T06:03:31;8.30;91.10
2763;DHT22;1389;51.490;7.338;2023-02-13T06:05:58;8.30;91.30
2763;DHT22;1389;51.490;7.338;2023-02-13T06:08:25;8.40;91.10
2763;DHT22;1389;51.490;7.338;2023-02-13T06:10:51;8.40;90.80
2763;DHT22;1389;51.490;7.338;2023-02-13T06:13:17;8.30;90.90
2763;DHT22;1389;51.490;7.338;2023-02-13T06:15:43;8.30;91.10
2763;DHT22;1389;51.490;7.338;2023-02-13T06:18:10;8.30;91.00
2763;DHT22;1389;51.490;7.338;2023-02-13T06:20:37;8.20;91.00
2763;DHT22;1389;51.490;7.338;2023-02-13T06:23:03;8.20;90.90
2763;DHT22;1389;51.490;7.338;2023-02-13T06:25:29;8.10;90.80
2763;DHT22;1389;51.490;7.338;2023-02-13T06:27:55;8.10;90.90
2763;DHT22;1389;51.490;7.338;2023-02-13T06:30:21;8.00;90.90
2763;DHT22;1389;51.490;7.338;2023-02-13T06:32:48;7.90;90.90
2763;DHT22;1389;51.490;7.338;2023-02-13T06:35:14;7.90;90.90
2763;DHT22;1389;51.490;7.338;2023-02-13T06:37:41;7.70;90.90
2763;DHT22;1389;51.490;7.338;2023-02-13T06:40:09;7.60;91.00
2763;DHT22;1389;51.490;7.338;2023-02-13T06:42:36;7.60;91.10
2763;DHT22;1389;51.490;7.338;2023-02-13T06:45:02;7.50;91.30
2763;DHT22;1389;51.490;7.338;2023-02-13T06:47:28;7.50;91.40
2763;DHT22;1389;51.490;7.338;2023-02-13T06:49:54;7.40;91.30
2763;DHT22;1389;51.490;7.338;2023-02-13T06:52:20;7.40;91.30
2763;DHT22;1389;51.490;7.338;2023-02-13T06:54:46;7.30;91.50
2763;DHT22;1389;51.490;7.338;2023-02-13T06:57:13;7.20;91.50
2763;DHT22;1389;51.490;7.338;2023-02-13T06:59:39;7.10;91.50
2763;DHT22;1389;51.490;7.338;2023-02-13T07:02:05;7.10;91.60
2763;DHT22;1389;51.490;7.338;2023-02-13T07:04:31;7.00;91.50
2763;DHT22;1389;51.490;7.338;2023-02-13T07:06:57;6.90;91.50
2763;DHT22;1389;51.490;7.338;2023-02-13T07:09:23;6.90;91.70
2763;DHT22;1389;51.490;7.338;2023-02-13T07:11:49;6.90;91.80
2763;DHT22;1389;51.490;7.338;2023-02-13T07:14:15;6.80;91.60
2763;DHT22;1389;51.490;7.338;2023-02-13T07:16:41;6.80;91.70
2763;DHT22;1389;51.490;7.338;2023-02-13T07:19:07;6.80;92.00
2763;DHT22;1389;51.490;7.338;2023-02-13T07:21:34;6.80;92.10
2763;DHT22;1389;51.490;7.338;2023-02-13T07:24:00;6.80;92.20
2763;DHT22;1389;51.490;7.338;2023-02-13T07:26:26;6.80;92.10
2763;DHT22;1389;51.490;7.338;2023-02-13T07:28:52;6.70;92.00
2763;DHT22;1389;51.490;7.338;2023-02-13T07:31:18;6.70;91.90
2763;DHT22;1389;51.490;7.338;2023-02-13T07:33:47;6.70;92.00
2763;DHT22;1389;51.490;7.338;2023-02-13T07:36:14;6.70;92.10
2763;DHT22;1389;51.490;7.338;2023-02-13T07:38:40;6.70;92.00
2763;DHT22;1389;51.490;7.338;2023-02-13T07:41:06;6.70;91.90
2763;DHT22;1389;51.490;7.338;2023-02-13T07:43:32;6.70;91.90
2763;DHT22;1389;51.490;7.338;2023-02-13T07:46:00;6.70;92.00
2763;DHT22;1389;51.490;7.338;2023-02-13T07:48:26;6.70;92.10
2763;DHT22;1389;51.490;7.338;2023-02-13T07:50:54;6.70;92.10
2763;DHT22;1389;51.490;7.338;2023-02-13T07:53:20;6.70;92.00
2763;DHT22;1389;51.490;7.338;2023-02-13T07:55:47;6.70;92.30
2763;DHT22;1389;51.490;7.338;2023-02-13T07:58:13;6.70;92.40
2763;DHT22;1389;51.490;7.338;2023-02-13T08:00:39;6.70;92.20
2763;DHT22;1389;51.490;7.338;2023-02-13T08:03:05;6.70;92.00
2763;DHT22;1389;51.490;7.338;2023-02-13T08:05:32;6.70;92.20
2763;DHT22;1389;51.490;7.338;2023-02-13T08:07:59;6.70;92.40
2763;DHT22;1389;51.490;7.338;2023-02-13T08:10:25;6.70;92.50
2763;DHT22;1389;51.490;7.338;2023-02-13T08:13:11;6.80;92.60
2763;DHT22;1389;51.490;7.338;2023-02-13T08:15:37;6.80;92.70
2763;DHT22;1389;51.490;7.338;2023-02-13T08:18:04;6.80;92.80
2763;DHT22;1389;51.490;7.338;2023-02-13T08:20:30;6.90;92.90
2763;DHT22;1389;51.490;7.338;2023-02-13T08:23:08;6.90;93.00
2763;DHT22;1389;51.490;7.338;2023-02-13T08:25:36;7.00;93.20
2763;DHT22;1389;51.490;7.338;2023-02-13T08:28:03;7.10;93.20
2763;DHT22;1389;51.490;7.338;2023-02-13T08:30:29;7.20;93.20
2763;DHT22;1389;51.490;7.338;2023-02-13T08:32:55;7.30;93.30
2763;DHT22;1389;51.490;7.338;2023-02-13T08:35:22;7.50;93.00
2763;DHT22;1389;51.490;7.338;2023-02-13T08:37:54;7.70;93.10
2763;DHT22;1389;51.490;7.338;2023-02-13T08:40:20;8.40;95.20
2763;DHT22;1389;51.490;7.338;2023-02-13T08:42:46;9.20;93.40
2763;DHT22;1389;51.490;7.338;2023-02-13T08:45:12;9.70;91.00
2763;DHT22;1389;51.490;7.338;2023-02-13T08:47:38;9.80;87.90
2763;DHT22;1389;51.490;7.338;2023-02-13T08:50:05;9.90;88.00
2763;DHT22;1389;51.490;7.338;2023-02-13T08:52:31;10.00;87.80
2763;DHT22;1389;51.490;7.338;2023-02-13T08:54:57;10.20;86.90
2763;DHT22;1389;51.490;7.338;2023-02-13T08:57:23;10.30;86.20
2763;DHT22;1389;51.490;7.338;2023-02-13T08:59:49;10.50;86.10
2763;DHT22;1389;51.490;7.338;2023-02-13T09:02:16;11.20;86.00
2763;DHT22;1389;51.490;7.338;2023-02-13T09:04:42;11.80;83.80
2763;DHT22;1389;51.490;7.338;2023-02-13T09:07:08;12.40;84.10
2763;DHT22;1389;51.490;7.338;2023-02-13T09:09:34;12.90;81.30
2763;DHT22;1389;51.490;7.338;2023-02-13T09:12:00;12.80;78.80
2763;DHT22;1389;51.490;7.338;2023-02-13T09:14:26;12.50;79.50
2763;DHT22;1389;51.490;7.338;2023-02-13T09:16:52;12.20;78.90
2763;DHT22;1389;51.490;7.338;2023-02-13T09:19:18;12.00;80.00
2763;DHT22;1389;51.490;7.338;2023-02-13T09:21:44;11.90;80.40
2763;DHT22;1389;51.490;7.338;2023-02-13T09:24:10;11.50;80.30
2763;DHT22;1389;51.490;7.338;2023-02-13T09:26:36;11.60;82.00
2763;DHT22;1389;51.490;7.338;2023-02-13T09:29:02;11.90;82.10
2763;DHT22;1389;51.490;7.338;2023-02-13T09:31:28;12.20;80.80
2763;DHT22;1389;51.490;7.338;2023-02-13T09:33:54;12.30;79.60
2763;DHT22;1389;51.490;7.338;2023-02-13T09:36:22;12.00;77.80
2763;DHT22;1389;51.490;7.338;2023-02-13T09:38:54;11.40;79.20
2763;DHT22;1389;51.490;7.338;2023-02-13T09:41:28;11.40;79.30
2763;DHT22;1389;51.490;7.338;2023-02-13T09:44:05;11.00;80.20
2763;DHT22;1389;51.490;7.338;2023-02-13T09:46:38;10.80;80.80
2763;DHT22;1389;51.490;7.338;2023-02-13T09:49:12;10.70;81.70
2763;DHT22;1389;51.490;7.338;2023-02-13T09:51:40;10.50;82.20
2763;DHT22;1389;51.490;7.338;2023-02-13T09:54:10;10.40;82.50
2763;DHT22;1389;51.490;7.338;2023-02-13T09:56:47;10.40;83.00
2763;DHT22;1389;51.490;7.338;2023-02-13T10:05:23;10.20;84.10
2763;DHT22;1389;51.490;7.338;2023-02-13T10:08:15;10.20;84.20
2763;DHT22;1389;51.490;7.338;2023-02-13T10:10:51;10.30;84.30
2763;DHT22;1389;51.490;7.338;2023-02-13T10:18:49;10.40;83.20
2763;DHT22;1389;51.490;7.338;2023-02-13T10:21:27;10.40;83.40
2763;DHT22;1389;51.490;7.338;2023-02-13T10:24:10;10.50;83.30
2763;DHT22;1389;51.490;7.338;2023-02-13T10:26:39;10.50;83.20
2763;DHT22;1389;51.490;7.338;2023-02-13T10:29:35;10.50;83.60
2763;DHT22;1389;51.490;7.338;2023-02-13T10:32:26;10.50;83.80
2763;DHT22;1389;51.490;7.338;2023-02-13T10:34:57;10.60;83.20
2763;DHT22;1389;51.490;7.338;2023-02-13T10:37:25;10.70;83.30
2763;DHT22;1389;51.490;7.338;2023-02-13T10:39:52;10.60;82.50
2763;DHT22;1389;51.490;7.338;2023-02-13T10:42:48;10.70;83.10
2763;DHT22;1389;51.490;7.338;2023-02-13T10:53:48;11.00;83.40
2763;DHT22;1389;51.490;7.338;2023-02-13T10:56:47;11.10;82.80
2763;DHT22;1389;51.490;7.338;2023-02-13T11:04:42;11.20;82.00
2763;DHT22;1389;51.490;7.338;2023-02-13T11:07:14;11.20;82.30
2763;DHT22;1389;51.490;7.338;2023-02-13T11:09:43;11.20;82.00
2763;DHT22;1389;51.490;7.338;2023-02-13T11:12:23;11.10;82.20
2763;DHT22;1389;51.490;7.338;2023-02-13T11:14:58;11.10;82.60
2763;DHT22;1389;51.490;7.338;2023-02-13T11:17:27;11.10;82.30
2763;DHT22;1389;51.490;7.338;2023-02-13T11:19:57;11.20;82.10
2763;DHT22;1389;51.490;7.338;2023-02-13T11:22:34;11.20;81.50
2763;DHT22;1389;51.490;7.338;2023-02-13T11:25:20;11.20;81.80
2763;DHT22;1389;51.490;7.338;2023-02-13T11:27:49;11.20;81.70
2763;DHT22;1389;51.490;7.338;2023-02-13T11:30:30;11.30;81.60
2763;DHT22;1389;51.490;7.338;2023-02-13T11:33:23;11.30;81.80
2763;DHT22;1389;51.490;7.338;2023-02-13T11:35:47;11.40;81.90
2763;DHT22;1389;51.490;7.338;2023-02-13T11:40:51;11.50;81.90
2763;DHT22;1389;51.490;7.338;2023-02-13T11:43:33;11.50;81.80
2763;DHT22;1389;51.490;7.338;2023-02-13T11:46:05;11.60;81.90
2763;DHT22;1389;51.490;7.338;2023-02-13T11:48:32;11.60;81.50
2763;DHT22;1389;51.490;7.338;2023-02-13T11:50:58;11.70;81.20
2763;DHT22;1389;51.490;7.338;2023-02-13T11:53:29;11.70;81.50
2763;DHT22;1389;51.490;7.338;2023-02-13T11:58:28;11.70;81.90
2763;DHT22;1389;51.490;7.338;2023-02-13T12:04:04;11.70;81.70
2763;DHT22;1389;51.490;7.338;2023-02-13T12:06:31;11.80;81.20
2763;DHT22;1389;51.490;7.338;2023-02-13T12:09:12;11.80;81.50
2763;DHT22;1389;51.490;7.338;2023-02-13T12:11:47;11.80;81.10
2763;DHT22;1389;51.490;7.338;2023-02-13T12:14:21;11.90;81.10
2763;DHT22;1389;51.490;7.338;2023-02-13T12:16:51;11.90;81.30
2763;DHT22;1389;51.490;7.338;2023-02-13T12:19:42;12.00;81.50
2763;DHT22;1389;51.490;7.338;2023-02-13T12:22:35;12.00;80.90
2763;DHT22;1389;51.490;7.338;2023-02-13T12:30:44;12.10;80.90
2763;DHT22;1389;51.490;7.338;2023-02-13T12:33:42;12.10;80.40
2763;DHT22;1389;51.490;7.338;2023-02-13T12:37:00;12.20;80.10
2763;DHT22;1389;51.490;7.338;2023-02-13T12:42:09;12.20;80.40
2763;DHT22;1389;51.490;7.338;2023-02-13T12:47:18;12.20;80.40
2763;DHT22;1389;51.490;7.338;2023-02-13T12:58:15;12.40;80.20
2763;DHT22;1389;51.490;7.338;2023-02-13T13:00:53;12.50;80.40
2763;DHT22;1389;51.490;7.338;2023-02-13T13:06:12;12.50;80.60
2763;DHT22;1389;51.490;7.338;2023-02-13T13:09:24;12.60;80.20
2763;DHT22;1389;51.490;7.338;2023-02-13T13:17:40;12.60;80.00
2763;DHT22;1389;51.490;7.338;2023-02-13T13:27:56;12.70;79.80
2763;DHT22;1389;51.490;7.338;2023-02-13T13:30:34;12.70;79.60
2763;DHT22;1389;51.490;7.338;2023-02-13T13:33:06;12.70;78.80
2763;DHT22;1389;51.490;7.338;2023-02-13T13:35:39;12.70;79.50
2763;DHT22;1389;51.490;7.338;2023-02-13T13:41:34;12.70;79.60
2763;DHT22;1389;51.490;7.338;2023-02-13T13:44:27;12.70;79.50
2763;DHT22;1389;51.490;7.338;2023-02-13T13:47:04;12.80;79.60
2763;DHT22;1389;51.490;7.338;2023-02-13T13:52:30;12.80;79.20
2763;DHT22;1389;51.490;7.338;2023-02-13T13:54:58;12.80;79.50
2763;DHT22;1389;51.490;7.338;2023-02-13T14:03:30;12.90;79.80
2763;DHT22;1389;51.490;7.338;2023-02-13T14:05:58;12.90;79.60
2763;DHT22;1389;51.490;7.338;2023-02-13T14:13:54;12.90;78.80
2763;DHT22;1389;51.490;7.338;2023-02-13T14:19:04;12.90;78.90
2763;DHT22;1389;51.490;7.338;2023-02-13T14:21:30;12.90;79.60
2763;DHT22;1389;51.490;7.338;2023-02-13T14:23:58;12.90;79.80
2763;DHT22;1389;51.490;7.338;2023-02-13T14:26:37;13.00;79.90
2763;DHT22;1389;51.490;7.338;2023-02-13T14:31:38;13.00;79.20
2763;DHT22;1389;51.490;7.338;2023-02-13T14:36:39;12.90;79.40
2763;DHT22;1389;51.490;7.338;2023-02-13T14:39:19;12.90;78.40
2763;DHT22;1389;51.490;7.338;2023-02-13T14:44:58;12.80;79.70
2763;DHT22;1389;51.490;7.338;2023-02-13T14:47:36;12.80;79.80
2763;DHT22;1389;51.490;7.338;2023-02-13T14:50:06;12.70;79.90
2763;DHT22;1389;51.490;7.338;2023-02-13T14:52:37;12.70;80.10
2763;DHT22;1389;51.490;7.338;2023-02-13T14:55:14;12.70;80.10
2763;DHT22;1389;51.490;7.338;2023-02-13T14:57:52;12.60;79.50
2763;DHT22;1389;51.490;7.338;2023-02-13T15:00:26;12.60;80.00
2763;DHT22;1389;51.490;7.338;2023-02-13T15:03:01;12.60;80.80
2763;DHT22;1389;51.490;7.338;2023-02-13T15:05:33;12.60;80.70
2763;DHT22;1389;51.490;7.338;2023-02-13T15:08:18;12.60;80.90
2763;DHT22;1389;51.490;7.338;2023-02-13T15:10:47;12.60;80.20
2763;DHT22;1389;51.490;7.338;2023-02-13T15:13:15;12.50;80.60
2763;DHT22;1389;51.490;7.338;2023-02-13T15:15:44;12.50;80.20
2763;DHT22;1389;51.490;7.338;2023-02-13T15:18:21;12.50;80.50
2763;DHT22;1389;51.490;7.338;2023-02-13T15:20:49;12.50;80.50
2763;DHT22;1389;51.490;7.338;2023-02-13T15:23:24;12.50;80.60
2763;DHT22;1389;51.490;7.338;2023-02-13T15:26:05;12.50;80.80
2763;DHT22;1389;51.490;7.338;2023-02-13T15:28:33;12.50;80.90
2763;DHT22;1389;51.490;7.338;2023-02-13T15:31:05;12.50;80.70
2763;DHT22;1389;51.490;7.338;2023-02-13T15:33:50;12.50;80.90
2763;DHT22;1389;51.490;7.338;2023-02-13T15:36:21;12.50;80.90
2763;DHT22;1389;51.490;7.338;2023-02-13T15:39:01;12.50;81.30
2763;DHT22;1389;51.490;7.338;2023-02-13T15:41:41;12.50;81.20
2763;DHT22;1389;51.490;7.338;2023-02-13T15:44:30;12.50;81.10
2763;DHT22;1389;51.490;7.338;2023-02-13T15:47:04;12.40;81.40
2763;DHT22;1389;51.490;7.338;2023-02-13T15:49:37;12.40;81.40
2763;DHT22;1389;51.490;7.338;2023-02-13T15:52:12;12.40;81.50
2763;DHT22;1389;51.490;7.338;2023-02-13T15:54:51;12.30;81.60
2763;DHT22;1389;51.490;7.338;2023-02-13T15:57:18;12.20;81.50
2763;DHT22;1389;51.490;7.338;2023-02-13T15:59:45;12.20;81.90
2763;DHT22;1389;51.490;7.338;2023-02-13T16:02:18;12.20;82.00
2763;DHT22;1389;51.490;7.338;2023-02-13T16:04:49;12.10;81.80
2763;DHT22;1389;51.490;7.338;2023-02-13T16:07:16;12.10;82.00
2763;DHT22;1389;51.490;7.338;2023-02-13T16:09:42;12.00;82.00
2763;DHT22;1389;51.490;7.338;2023-02-13T16:12:26;12.00;82.10
2763;DHT22;1389;51.490;7.338;2023-02-13T16:15:01;11.90;82.20
2763;DHT22;1389;51.490;7.338;2023-02-13T16:17:32;11.90;82.40
2763;DHT22;1389;51.490;7.338;2023-02-13T16:22:44;11.70;82.80
2763;DHT22;1389;51.490;7.338;2023-02-13T16:27:44;11.60;83.10
2763;DHT22;1389;51.490;7.338;2023-02-13T16:30:27;11.50;83.20
2763;DHT22;1389;51.490;7.338;2023-02-13T16:35:44;11.30;83.50
2763;DHT22;1389;51.490;7.338;2023-02-13T16:38:29;11.20;83.80
2763;DHT22;1389;51.490;7.338;2023-02-13T16:46:32;11.10;84.30
2763;DHT22;1389;51.490;7.338;2023-02-13T16:49:19;11.00;84.30
2763;DHT22;1389;51.490;7.338;2023-02-13T16:51:47;10.90;84.20
2763;DHT22;1389;51.490;7.338;2023-02-13T17:02:35;10.50;84.80
2763;DHT22;1389;51.490;7.338;2023-02-13T17:07:39;10.40;85.40
2763;DHT22;1389;51.490;7.338;2023-02-13T17:10:20;10.30;85.40
2763;DHT22;1389;51.490;7.338;2023-02-13T17:12:50;10.20;85.50
2763;DHT22;1389;51.490;7.338;2023-02-13T17:15:21;10.10;85.80
2763;DHT22;1389;51.490;7.338;2023-02-13T17:17:48;10.10;85.90
2763;DHT22;1389;51.490;7.338;2023-02-13T17:20:18;10.10;86.00
2763;DHT22;1389;51.490;7.338;2023-02-13T17:22:46;10.10;86.10
2763;DHT22;1389;51.490;7.338;2023-02-13T17:25:19;10.10;86.10
2763;DHT22;1389;51.490;7.338;2023-02-13T17:27:50;10.00;85.80
2763;DHT22;1389;51.490;7.338;2023-02-13T17:30:27;10.00;85.90
2763;DHT22;1389;51.490;7.338;2023-02-13T17:33:14;9.90;86.10
2763;DHT22;1389;51.490;7.338;2023-02-13T17:35:41;9.90;86.10
2763;DHT22;1389;51.490;7.338;2023-02-13T17:38:08;9.80;86.30
2763;DHT22;1389;51.490;7.338;2023-02-13T17:40:35;9.80;86.40
2763;DHT22;1389;51.490;7.338;2023-02-13T17:43:02;9.80;86.50
2763;DHT22;1389;51.490;7.338;2023-02-13T17:45:31;9.80;86.40
2763;DHT22;1389;51.490;7.338;2023-02-13T17:47:57;9.70;86.50
2763;DHT22;1389;51.490;7.338;2023-02-13T17:50:25;9.70;86.50
2763;DHT22;1389;51.490;7.338;2023-02-13T17:52:51;9.70;86.60
2763;DHT22;1389;51.490;7.338;2023-02-13T17:55:24;9.70;86.70
2763;DHT22;1389;51.490;7.338;2023-02-13T17:57:52;9.60;86.60
2763;DHT22;1389;51.490;7.338;2023-02-13T18:00:19;9.60;86.40
2763;DHT22;1389;51.490;7.338;2023-02-13T18:02:47;9.50;86.60
2763;DHT22;1389;51.490;7.338;2023-02-13T18:05:14;9.40;86.80
2763;DHT22;1389;51.490;7.338;2023-02-13T18:07:42;9.30;86.90
2763;DHT22;1389;51.490;7.338;2023-02-13T18:10:23;9.30;86.90
2763;DHT22;1389;51.490;7.338;2023-02-13T18:12:51;9.30;87.00
2763;DHT22;1389;51.490;7.338;2023-02-13T18:15:17;9.20;87.10
2763;DHT22;1389;51.490;7.338;2023-02-13T18:17:44;9.20;87.10
2763;DHT22;1389;51.490;7.338;2023-02-13T18:20:18;9.10;87.20
2763;DHT22;1389;51.490;7.338;2023-02-13T18:22:46;9.10;87.50
2763;DHT22;1389;51.490;7.338;2023-02-13T18:25:12;9.10;87.70
2763;DHT22;1389;51.490;7.338;2023-02-13T18:27:39;9.00;87.70
2763;DHT22;1389;51.490;7.338;2023-02-13T18:30:05;9.00;87.60
2763;DHT22;1389;51.490;7.338;2023-02-13T18:32:32;8.90;87.50
2763;DHT22;1389;51.490;7.338;2023-02-13T18:34:58;8.90;87.60
2763;DHT22;1389;51.490;7.338;2023-02-13T18:37:24;8.80;87.80
2763;DHT22;1389;51.490;7.338;2023-02-13T18:39:53;8.60;87.90
2763;DHT22;1389;51.490;7.338;2023-02-13T18:42:19;8.60;88.00
2763;DHT22;1389;51.490;7.338;2023-02-13T18:44:45;8.50;88.20
2763;DHT22;1389;51.490;7.338;2023-02-13T18:47:11;8.40;88.20
2763;DHT22;1389;51.490;7.338;2023-02-13T18:49:37;8.30;88.40
2763;DHT22;1389;51.490;7.338;2023-02-13T18:52:03;8.20;88.50
2763;DHT22;1389;51.490;7.338;2023-02-13T18:54:29;8.20;88.40
2763;DHT22;1389;51.490;7.338;2023-02-13T18:56:56;8.10;88.40
2763;DHT22;1389;51.490;7.338;2023-02-13T18:59:22;8.00;88.40
2763;DHT22;1389;51.490;7.338;2023-02-13T19:01:48;7.90;88.60
2763;DHT22;1389;51.490;7.338;2023-02-13T19:04:15;7.90;88.60
2763;DHT22;1389;51.490;7.338;2023-02-13T19:06:42;7.90;88.70
2763;DHT22;1389;51.490;7.338;2023-02-13T19:09:09;7.80;88.80
2763;DHT22;1389;51.490;7.338;2023-02-13T19:11:35;7.80;88.90
2763;DHT22;1389;51.490;7.338;2023-02-13T19:14:03;7.80;89.20
2763;DHT22;1389;51.490;7.338;2023-02-13T19:16:31;7.70;89.20
2763;DHT22;1389;51.490;7.338;2023-02-13T19:18:59;7.80;89.30
2763;DHT22;1389;51.490;7.338;2023-02-13T19:21:27;7.80;89.20
2763;DHT22;1389;51.490;7.338;2023-02-13T19:23:54;7.70;89.30
2763;DHT22;1389;51.490;7.338;2023-02-13T19:26:22;7.70;89.20
2763;DHT22;1389;51.490;7.338;2023-02-13T19:28:49;7.70;89.40
2763;DHT22;1389;51.490;7.338;2023-02-13T19:31:18;7.70;89.30